首页
METAR-TAF:

METAR-TAF

机场 :

重庆江北国际机场

重庆, 中华人民共和国

纬度: 29-31N, 经度: 106-29E, 海拔: 351米

当前天气观测

该预报发布于57分钟前的21:00 UTC
风速6节,风向北转东北
温度 7°C
湿度 87%
气压 1019 hPa
能见度10公里或以上
1500米以下无云,无积雨云

METAR: ZUCK 262100Z 02003MPS CAVOK 07/05 Q1019 NOSIG

时间: 05:57 (21:57 UTC)

预报

该预报发布于7小时和55分钟前的14:02 UTC
预报有效从26日的 18点(UTC)到 27日的 18点(UTC)
风速6节,风向北转东北
能見度: 4000
阴天层高于4000英尺
轻雾

TAF: ZUCK 261402Z 2618/2718 03003MPS 4000 BR OVC040 TX11/2707Z TN06/2620Z

超过4000个机场的气象观测和天气预报(METAR&TAF报告)。

可查询的气象台以黄色和红色小点在地图上表示。

将鼠标移到小点上方,可查看气象台名称。

然后点击查看天气观测和预报。

如需切换地图:点击带黑十字的绿色按钮放大地图;点击带横线的绿色按钮缩小地图;或者点击绿色箭头查看邻近地区的地图。


METAR-TAF: